Flight Track Log - Related Links

Times and Time Zones

All times are in EDT time to prevent confusion due to time zone crossing. See the N920AC flight status page for this flight to view local times or setup timezone preferences in your user account.

Time Position Orientation Groundspeed Altitude Reporting Facility
EDT Latitude Longitude Course Direction KTS MPH feet Rate Location/Type
Wed 05:14:40 PM 28.5667 -81.3333 189° South 105 121 900  Level Orlando TRACON
Wed 05:15:28 PM 28.5500 -81.3667 240° Southwest 109 125 1,200 209 Climbing Orlando TRACON
Wed 05:16:35 PM 28.5500 -81.4000 270° West 113 130 1,300 142 Climbing Orlando TRACON
Wed 05:17:35 PM 28.5500 -81.4333 270° West 112 129 1,500 150 Climbing Orlando TRACON
Wed 05:18:35 PM 28.5500 -81.4667 270° West 103 119 1,600  Climbing Orlando TRACON
Wed 05:19:40 PM 28.5333 -81.5000 240° Southwest 113 130 1,500  Descending Orlando TRACON
Wed 05:20:00 PM 28.3875 -81.3627 189° South  Level Estimated
Wed 05:20:41 PM 28.5167 -81.5333 240° Southwest 99 114 1,600  Level Orlando TRACON
Wed 05:21:35 PM 28.5167 -81.5500 270° West 100 115 1,600 105 Level Orlando TRACON
Wed 05:22:35 PM 28.4833 -81.5667 204° Southwest 76 87 1,800 190 Climbing Orlando TRACON
Wed 05:23:41 PM 28.4667 -81.5667 180° South 70 81 2,000 95 Climbing Orlando TRACON
Wed 05:24:41 PM 28.4500 -81.5667 180° South 81 93 2,000 52 Level Orlando TRACON
Wed 05:25:36 PM 28.4333 -81.5833 221° Southwest 82 94 2,100 50 Climbing Orlando TRACON
Wed 05:26:41 PM 28.4000 -81.5833 180° South 76 87 2,100 -48 Level Orlando TRACON
Wed 05:27:41 PM 28.3833 -81.5833 180° South 81 93 2,000  Descending Orlando TRACON
Wed 05:28:36 PM 28.3667 -81.5833 180° South 82 94 2,100 52 Climbing Orlando TRACON
Wed 05:29:36 PM 28.3333 -81.6000 204° Southwest 77 89 2,100 50 Level Orlando TRACON
Wed 05:30:36 PM 28.3167 -81.6000 180° South 81 93 2,200  Climbing Orlando TRACON
Wed 05:31:36 PM 28.3000 -81.6000 180° South 79 91 2,100 -50 Descending Orlando TRACON
Wed 05:32:36 PM 28.2667 -81.6000 180° South 75 86 2,100  Level Orlando TRACON
Wed 05:33:30 PM 28.2500 -81.6167 221° Southwest 74 85 2,100  Level Orlando TRACON
Wed 05:34:30 PM 28.2333 -81.6167 180° South 79 91 2,100 -48 Level Orlando TRACON
Wed 05:35:36 PM 28.2167 -81.6167 180° South 79 91 2,000 -50 Descending Orlando TRACON
Wed 05:36:30 PM 28.2000 -81.6333 221° Southwest 79 91 2,000 50 Level Orlando TRACON
Wed 05:37:36 PM 28.1667 -81.6333 180° South 78 90 2,100 50 Climbing Orlando TRACON
Wed 05:38:30 PM 28.1500 -81.6333 180° South 79 91 2,100  Level Orlando TRACON
Wed 05:39:30 PM 28.1333 -81.6500 221° Southwest 80 92 2,100  Level Orlando TRACON
Wed 05:40:30 PM 28.1000 -81.6333 156° South 78 90 2,100  Level Orlando TRACON
Wed 05:41:30 PM 28.0833 -81.6333 180° South 77 89 2,100 -64 Level Orlando TRACON
Wed 05:42:04 PM 28.0797 -81.6194 106° East 73 84 2,000 -64 Descending Miami Center
Wed 05:43:04 PM 28.0639 -81.6000 133° Southeast 73 84 2,000  Level Miami Center
Wed 05:44:04 PM 28.0478 -81.5828 137° Southeast 73 84 2,000  Level Miami Center
Wed 05:45:04 PM 28.0314 -81.5681 142° Southeast 73 84 2,000  Level Miami Center
Wed 05:46:04 PM 28.0131 -81.5531 144° Southeast 79 91 2,000 50 Level Miami Center
Wed 05:47:04 PM 27.9950 -81.5383 144° Southeast 79 91 2,100  Climbing Miami Center
Wed 05:48:04 PM 27.9786 -81.5283 152° Southeast 79 91 2,000  Descending Miami Center
Wed 05:49:04 PM 27.9603 -81.5133 144° Southeast 79 91 2,100 50 Climbing Miami Center
Wed 05:50:04 PM 27.9439 -81.5011 147° Southeast 79 91 2,100  Level Miami Center
Wed 05:51:04 PM 27.9256 -81.4839 140° Southeast 79 91 2,100  Level Miami Center
Wed 05:52:04 PM 27.9072 -81.4714 149° Southeast 79 91 2,100 -50 Level Miami Center
Wed 05:53:04 PM 27.8889 -81.4611 154° Southeast 79 91 2,000 -50 Descending Miami Center
Wed 05:54:04 PM 27.8703 -81.4511 155° Southeast 74 85 2,000  Level Miami Center
Wed 05:55:04 PM 27.8519 -81.4361 144° Southeast 74 85 2,000  Level Miami Center
Wed 05:56:04 PM 27.8336 -81.4261 154° Southeast 74 85 2,000  Level Miami Center
Wed 05:57:04 PM 27.8153 -81.4136 149° Southeast 74 85 2,000 50 Level Miami Center
Wed 05:58:04 PM 27.7967 -81.4058 160° South 74 85 2,100  Climbing Miami Center
Wed 05:59:04 PM 27.7761 -81.4003 167° South 74 85 2,000 -50 Descending Miami Center
Wed 06:00:04 PM 27.7553 -81.3947 167° South 74 85 2,000 50 Level Miami Center
Wed 06:01:04 PM 27.7347 -81.3892 167° South 74 85 2,100 50 Climbing Miami Center
Wed 06:02:04 PM 27.7139 -81.3883 178° South 74 85 2,100  Level Miami Center
Wed 06:03:04 PM 27.6972 -81.3856 172° South 74 85 2,100  Level Miami Center
Wed 06:04:04 PM 27.6767 -81.3728 151° Southeast 74 85 2,100  Level Miami Center
Wed 06:05:04 PM 27.6606 -81.3583 142° Southeast 74 85 2,100  Level Miami Center
Wed 06:06:04 PM 27.6442 -81.3433 141° Southeast 81 93 2,100  Level Miami Center
Wed 06:07:04 PM 27.6322 -81.3267 129° Southeast 74 85 2,100 -100 Level Miami Center
Wed 06:08:04 PM 27.6117 -81.3142 152° Southeast 74 85 1,900 -200 Descending Miami Center
Wed 06:09:04 PM 27.5825 -81.3106 174° South 87 100 1,700 1,300 Descending Miami Center
Wed 06:10:04 PM 27.5597 -81.3122 184° South 92 106 4,500 400 Climbing Miami Center
Wed 06:11:04 PM 27.5386 -81.3136 183° South 84 97 2,500 -950 Descending Miami Center
Wed 06:12:04 PM 27.5217 -81.3222 204° Southwest 84 97 2,600 50 Climbing Miami Center
Wed 06:13:04 PM 27.5006 -81.3331 204° Southwest 84 97 2,600  Level Miami Center
Wed 06:14:04 PM 27.4775 -81.3392 193° South 84 97 2,600 -50 Level Miami Center
Wed 06:15:04 PM 27.4583 -81.3481 202° Southwest 89 102 2,500 -50 Descending Miami Center
Wed 06:16:04 PM 27.4372 -81.3542 194° South 89 102 2,500  Level Miami Center
Wed 06:17:04 PM 27.4183 -81.3628 202° Southwest 89 102 2,500  Level Miami Center
Wed 06:18:04 PM 27.3950 -81.3689 193° South 89 102 2,500  Level Miami Center
Wed 06:19:04 PM 27.3742 -81.3728 189° South 89 102 2,500 -50 Level Miami Center
Wed 06:20:04 PM 27.3508 -81.3789 193° South 89 102 2,400  Descending Miami Center
Wed 06:21:04 PM 27.3297 -81.3872 199° South 89 102 2,500 50 Climbing Miami Center
Wed 06:22:04 PM 27.3086 -81.3958 200° South 89 102 2,500  Level Miami Center
Wed 06:23:04 PM 27.2853 -81.4042 198° South 89 102 2,500 50 Level Miami Center
Wed 06:24:04 PM 27.2642 -81.4128 200° South 89 102 2,600 50 Climbing Miami Center
Wed 06:25:04 PM 27.2431 -81.4214 200° South 89 102 2,600 -50 Level Miami Center
Wed 06:26:04 PM 27.2219 -81.4344 209° Southwest 89 102 2,500 -50 Descending Miami Center
Wed 06:27:04 PM 27.2006 -81.4431 200° South 89 102 2,500  Level Miami Center
Wed 06:28:04 PM 27.1794 -81.4539 205° Southwest 89 102 2,500  Level Miami Center
Wed 06:29:04 PM 27.1583 -81.4600 194° South 89 102 2,500  Level Miami Center
Wed 06:30:04 PM 27.1394 -81.4686 202° Southwest 89 102 2,500  Level Miami Center
Wed 06:31:04 PM 27.1203 -81.4747 196° South 89 102 2,500 -50 Level Miami Center
Wed 06:32:04 PM 27.0969 -81.4856 202° Southwest 89 102 2,400 -50 Descending Miami Center
Wed 06:33:04 PM 27.0778 -81.4964 207° Southwest 89 102 2,400 50 Level Miami Center
Wed 06:34:04 PM 27.0569 -81.5025 195° South 89 102 2,500 50 Climbing Miami Center
Wed 06:35:04 PM 27.0358 -81.5064 189° South 89 102 2,500  Level Miami Center
Wed 06:36:04 PM 27.0358 -81.5064 17° North 89 102 2,500  Level Miami Center
Wed 06:38:04 PM 27.0358 -81.5064 17° North 89 102 2,500  Level Miami Center
Wed 06:40:00 PM 26.9898 -81.5021 175° South  Level FlightAware Approximate
Wed 06:47:00 PM 26.8262 -81.5469 197° South  Level FlightAware Approximate
Wed 06:48:00 PM 26.8033 -81.5545 197° South  Level FlightAware Approximate
Wed 06:49:00 PM 26.7804 -81.5622 197° South  Level FlightAware Approximate
Wed 06:50:00 PM 26.7576 -81.5698 197° South  Level FlightAware Approximate
Wed 06:51:00 PM 26.7347 -81.5774 197° South  Level FlightAware Approximate
Wed 06:52:00 PM 26.7118 -81.5850 197° South  Level FlightAware Approximate
Wed 06:53:00 PM 26.6889 -81.5926 197° South  Level FlightAware Approximate
Wed 06:54:00 PM 26.6660 -81.6003 197° South  Level FlightAware Approximate
Wed 06:55:00 PM 26.6432 -81.6079 197° South  Level FlightAware Approximate
Wed 06:56:00 PM 26.6203 -81.6155 197° South  Level FlightAware Approximate
Wed 06:57:00 PM 26.5974 -81.6231 197° South  Level FlightAware Approximate
Wed 06:58:00 PM 26.5745 -81.6307 197° South  Level FlightAware Approximate
Wed 06:59:00 PM 26.5517 -81.6384 197° South  Level FlightAware Approximate
Wed 07:00:00 PM 26.5288 -81.6460 197° South  Level FlightAware Approximate
Wed 07:01:00 PM 26.5059 -81.6536 197° South  Level FlightAware Approximate
Wed 07:02:00 PM 26.4831 -81.6613 197° South  Level FlightAware Approximate
Wed 07:03:00 PM 26.4602 -81.6689 197° South  Level FlightAware Approximate
Wed 07:04:00 PM 26.4373 -81.6765 197° South  Level FlightAware Approximate
Wed 07:05:00 PM 26.4144 -81.6842 197° South  Level FlightAware Approximate
Wed 07:06:00 PM 26.3916 -81.6918 197° South  Level FlightAware Approximate
Wed 07:07:00 PM 26.3687 -81.6994 197° South  Level FlightAware Approximate
Wed 07:08:00 PM 26.3458 -81.7070 197° South  Level FlightAware Approximate
Wed 07:09:00 PM 26.3230 -81.7146 197° South  Level FlightAware Approximate
Wed 07:10:00 PM 26.3001 -81.7222 197° South  Level FlightAware Approximate
Wed 07:11:00 PM 26.2772 -81.7298 197° South  Level FlightAware Approximate
Wed 07:12:00 PM 26.2538 -81.7333 180° South  Level FlightAware Approximate
Wed 07:13:00 PM 26.2299 -81.7333 180° South  Level FlightAware Approximate
Wed 07:14:00 PM 26.2070 -81.7382 204° Southwest  Level FlightAware Approximate
Wed 07:15:00 PM 26.1852 -81.7491 204° Southwest  Level FlightAware Approximate
Wed 07:16:00 PM 26.1634 -81.7600 204° Southwest  Level FlightAware Approximate
Wed 07:17:00 PM 26.1500 -81.7667 204° Southwest  Level FlightAware Approximate
Wed 07:18:00 PM 26.1524 -81.7756 204° Southwest  Level Estimated
Wed 07:19:00 PM 26.1524 -81.7756 204° Southwest  Level Estimated
Wed 07:20:00 PM 26.1524 -81.7756 204° Southwest  Level Estimated

Login

Don't have an account? Register now (free) for customized features, flight alerts, and more!